KMLP

Mullan Pass Vor Airport

Mullan Pass, Idaho, USA
METAR KMLP 220953Z AUTO 36005KT 10SM CLR 11/06 A3006 RMK AO2 SLP110 T01060056
Observed Flight Rules
May-22 @ 09:53 UTC (10 minutes ago) Visual Flight Rules
Wind Visibility Clouds
360° at 5 knots 10 miles
  • Clear skies
Temperatures Readings
Current 11°C / 52°F
Dewpoint 6°C / 43°F
Humidity 72%
Altimeter 30.06" Hg
Pressure 1011 hPa
Elevation 1837
METAR KMLP 220953Z AUTO 36005KT 10SM CLR 11/06 A3006 RMK AO2 SLP110 T01060056
Observed Flight Rules
May-22 @ 09:53 UTC
(10 minutes ago)
VFR
Wind Visibility
360° at 5 knots 10 miles
Clouds
  • Clear skies
Temperature Dewpoint
11°C / 52°F 6°C / 43°F
Humidity Altimeter Pressure
72% 30.06" Hg 1011 hPa